Terminal Aerodrome Forecast
Issued by NWS

Home | Current Version | Previous Version | Graphics & Text | Print | Product List | Glossary On
Versions: 1 2 3 4 5 6 7 8 9 10 11 12 13 14 15 16 17
679
FTUS43 KFGF 172336
TAFBJI
TAF
KBJI 172336Z 1800/1824 27007KT P6SM SCT040
     FM180400 26005KT P6SM SCT040
     FM181100 12005KT 6SM -SN OVC035
     FM181200 11006KT 1SM -SN OVC030
     FM181700 08008KT 3/4SM -SN OVC010
     FM181800 08008KT P6SM OVC015
     FM182000 04009KT P6SM OVC010
     FM182300 02009KT P6SM BKN020=

USA.gov is the U.S. government's official web portal to all federal, state and local government web resources and services.